Time;durP1;ratioP1;P1;durP2;ratioP2;P2;SDS_P1;SDS_P2;PMS_P1;PMS_P2;Temp;Humidity;BMP_temperature;BMP_pressure;BME280_temperature;BME280_humidity;BME280_pressure;Samples;Min_cycle;Max_cycle;Signal;HPM_P1;HPM_P2
2022/05/29 00:02:02;;;;;;;6.13;1.48;;;14.30;61.20;;;;;;5048922;28;20032;-78
2022/05/29 00:04:28;;;;;;;4.53;1.58;;;14.30;61.20;;;;;;5031878;28;20542;-78
2022/05/29 00:06:56;;;;;;;2.53;1.63;;;14.20;61.90;;;;;;5016813;28;20033;-78
2022/05/29 00:09:35;;;;;;;2.70;1.30;;;14.20;62.00;;;;;;5048419;28;20030;-78
2022/05/29 00:12:03;;;;;;;2.00;1.27;;;14.00;62.70;;;;;;5047844;28;20034;-76
2022/05/29 00:14:29;;;;;;;4.80;1.58;;;14.00;63.00;;;;;;5016650;28;20041;-76
2022/05/29 00:16:58;;;;;;;3.28;1.27;;;13.80;63.30;;;;;;5016575;28;20084;-76
2022/05/29 00:19:24;;;;;;;4.45;2.03;;;13.80;63.40;;;;;;5016471;28;20038;-76
2022/05/29 00:21:51;;;;;;;4.68;1.60;;;13.80;63.50;;;;;;5032991;28;20104;-76
2022/05/29 00:24:17;;;;;;;5.57;2.00;;;13.80;63.40;;;;;;5036323;28;20493;-76
2022/05/29 00:26:43;;;;;;;3.42;1.50;;;13.80;63.50;;;;;;5020793;28;20025;-76
2022/05/29 00:29:09;;;;;;;6.25;1.80;;;13.80;63.50;;;;;;5022890;28;20087;-76
2022/05/29 00:31:35;;;;;;;3.90;1.48;;;13.70;63.80;;;;;;5034378;28;20021;-76
2022/05/29 00:34:03;;;;;;;2.50;1.38;;;13.70;63.90;;;;;;5035442;28;20056;-76
2022/05/29 00:36:37;;;;;;;5.43;1.70;;;13.70;63.90;;;;;;5016178;28;20076;-76
2022/05/29 00:39:03;;;;;;;5.72;1.67;;;13.70;63.90;;;;;;5015976;28;20031;-76
2022/05/29 00:41:34;;;;;;;3.08;1.63;;;13.70;63.90;;;;;;5035344;28;20093;-76
2022/05/29 00:44:26;;;;;;;3.20;1.15;;;13.70;64.00;;;;;;5035472;28;20064;-76
2022/05/29 00:46:58;;;;;;;2.42;1.50;;;13.70;64.10;;;;;;5051521;28;20033;-76
2022/05/29 00:49:28;;;;;;;4.55;1.73;;;13.70;63.90;;;;;;5015797;28;20042;-76
2022/05/29 00:52:08;;;;;;;6.43;1.70;;;13.70;64.00;;;;;;5014882;28;20029;-76
2022/05/29 00:54:44;;;;;;;3.65;1.90;;;13.70;63.80;;;;;;5014865;28;20443;-77
2022/05/29 00:57:15;;;;;;;4.32;1.98;;;13.60;64.20;;;;;;5014247;28;20125;-76
2022/05/29 00:59:42;;;;;;;6.47;1.70;;;13.60;64.30;;;;;;5031124;28;20021;-76
2022/05/29 01:02:11;;;;;;;7.88;2.17;;;13.60;64.20;;;;;;5015464;28;20026;-76
2022/05/29 01:04:39;;;;;;;3.05;1.70;;;13.60;64.30;;;;;;5015422;28;20469;-76
2022/05/29 01:07:08;;;;;;;2.28;1.50;;;13.50;64.50;;;;;;5034782;28;20031;-76
2022/05/29 01:09:40;;;;;;;5.45;1.83;;;13.40;64.90;;;;;;5034034;28;20487;-76
2022/05/29 01:12:37;;;;;;;5.15;1.73;;;13.40;65.10;;;;;;5050698;28;20076;-76
2022/05/29 01:15:10;;;;;;;9.10;1.67;;;13.40;65.00;;;;;;5023474;28;20030;-76
2022/05/29 01:17:47;;;;;;;3.92;1.50;;;13.50;64.70;;;;;;5014285;28;20022;-76
2022/05/29 01:20:45;;;;;;;4.35;1.63;;;13.40;64.80;;;;;;5018767;28;20014;-76
2022/05/29 01:23:28;;;;;;;7.15;2.22;;;13.40;65.00;;;;;;5029596;28;20037;-76
2022/05/29 01:26:22;;;;;;;6.45;2.25;;;13.30;64.80;;;;;;5030486;28;20022;-76
2022/05/29 01:28:52;;;;;;;3.78;1.70;;;13.30;65.30;;;;;;5030323;28;20499;-76
2022/05/29 01:31:38;;;;;;;3.50;1.50;;;13.30;65.10;;;;;;5033600;28;20487;-76
2022/05/29 01:34:16;;;;;;;5.47;2.03;;;13.20;65.20;;;;;;5031376;28;20428;-76
2022/05/29 01:36:49;;;;;;;4.03;1.85;;;13.30;64.80;;;;;;5033637;28;20117;-75
2022/05/29 01:39:51;;;;;;;5.25;1.60;;;13.30;64.90;;;;;;5033763;28;20033;-76
2022/05/29 01:42:23;;;;;;;2.28;1.65;;;13.30;64.80;;;;;;5032177;28;20044;-75
2022/05/29 01:45:11;;;;;;;4.20;1.42;;;13.30;64.70;;;;;;5032715;28;20033;-76
2022/05/29 01:47:48;;;;;;;10.68;1.98;;;13.30;64.70;;;;;;5003252;28;20064;-76
2022/05/29 01:50:39;;;;;;;3.90;1.45;;;13.30;64.80;;;;;;5013415;28;20026;-76
2022/05/29 01:53:26;;;;;;;;;;;;;;;;;;;;;
2022/05/29 01:55:57;;;;;;;3.50;1.83;;;13.20;65.00;;;;;;5034632;28;20042;-76
2022/05/29 01:58:32;;;;;;;3.47;1.70;;;13.20;65.20;;;;;;5049550;28;20060;-76
2022/05/29 02:01:00;;;;;;;6.10;1.77;;;13.10;65.50;;;;;;5033947;28;20018;-76
2022/05/29 02:03:32;;;;;;;4.03;1.88;;;13.00;65.60;;;;;;5015147;28;20103;-76
2022/05/29 02:06:05;;;;;;;3.78;1.30;;;13.00;65.70;;;;;;5029937;28;20026;-76
2022/05/29 02:09:03;;;;;;;2.40;1.70;;;12.90;65.90;;;;;;5030579;28;20091;-76
2022/05/29 02:11:30;;;;;;;3.08;1.75;;;12.90;65.90;;;;;;5030628;28;20038;-76
2022/05/29 02:14:19;;;;;;;4.80;1.67;;;12.80;66.00;;;;;;5042572;28;20112;-76
2022/05/29 02:16:58;;;;;;;7.05;2.10;;;12.80;66.10;;;;;;5013392;28;20104;-76
2022/05/29 02:19:56;;;;;;;5.45;1.80;;;12.80;66.10;;;;;;5013912;28;20022;-76
2022/05/29 02:22:27;;;;;;;3.83;1.17;;;12.80;66.10;;;;;;5012589;28;20069;-75
2022/05/29 02:25:16;;;;;;;5.10;1.65;;;12.80;66.10;;;;;;5014176;28;20516;-76
2022/05/29 02:27:47;;;;;;;2.75;1.70;;;12.70;66.20;;;;;;5046044;28;20033;-76
2022/05/29 02:30:14;;;;;;;3.65;1.55;;;12.80;66.10;;;;;;5030939;28;20040;-76
2022/05/29 02:33:00;;;;;;;4.00;1.58;;;12.80;65.90;;;;;;5031892;28;20044;-76
2022/05/29 02:35:33;;;;;;;5.35;1.65;;;12.70;66.20;;;;;;5026767;28;20061;-76
2022/05/29 02:38:03;;;;;;;4.80;1.63;;;12.70;66.20;;;;;;5012975;28;20507;-76
2022/05/29 02:40:28;;;;;;;6.83;1.97;;;12.70;66.20;;;;;;5013522;28;20049;-76
2022/05/29 02:43:21;;;;;;;3.92;2.00;;;12.70;66.50;;;;;;5013856;28;20060;-76
2022/05/29 02:45:56;;;;;;;4.53;1.80;;;12.70;66.40;;;;;;5013849;28;20065;-76
2022/05/29 02:48:30;;;;;;;4.22;1.75;;;12.70;66.30;;;;;;5028841;28;20079;-76
2022/05/29 02:51:12;;;;;;;4.70;1.35;;;12.60;66.30;;;;;;5012811;28;20035;-76
2022/05/29 02:53:43;;;;;;;4.28;1.80;;;12.60;66.60;;;;;;4996097;28;20472;-76
2022/05/29 02:56:10;;;;;;;4.45;1.67;;;12.50;66.50;;;;;;5013616;28;20061;-75
2022/05/29 02:58:39;;;;;;;3.00;1.95;;;12.50;66.70;;;;;;5028841;28;20025;-75
2022/05/29 03:01:10;;;;;;;6.97;2.05;;;12.50;66.10;;;;;;5013139;28;20026;-75
2022/05/29 03:04:10;;;;;;;2.85;1.40;;;12.50;66.20;;;;;;5013633;28;20558;-76
2022/05/29 03:06:38;;;;;;;4.83;1.60;;;12.50;66.10;;;;;;5013880;28;20033;-76
2022/05/29 03:09:16;;;;;;;3.28;1.90;;;12.50;66.30;;;;;;5012178;28;20028;-76
2022/05/29 03:11:44;;;;;;;2.22;1.45;;;12.50;65.90;;;;;;5013420;28;20096;-76
2022/05/29 03:14:19;;;;;;;7.28;1.85;;;12.40;66.00;;;;;;5013648;28;20072;-76
2022/05/29 03:17:20;;;;;;;3.17;1.73;;;12.30;66.20;;;;;;5013701;28;20650;-76
2022/05/29 03:20:06;;;;;;;5.50;1.52;;;12.30;66.30;;;;;;5025991;28;20124;-76
2022/05/29 03:22:40;;;;;;;5.68;2.08;;;12.30;66.30;;;;;;5013222;28;20107;-76
2022/05/29 03:25:36;;;;;;;4.85;1.90;;;12.30;66.20;;;;;;5016648;28;20030;-76
2022/05/29 03:28:05;;;;;;;6.97;1.50;;;12.30;66.20;;;;;;5032410;28;20029;-76
2022/05/29 03:30:37;;;;;;;4.68;2.20;;;12.30;66.40;;;;;;5035657;28;20123;-77
2022/05/29 03:33:06;;;;;;;5.35;2.20;;;12.20;66.50;;;;;;5037271;28;20079;-76
2022/05/29 03:35:53;;;;;;;2.90;1.63;;;12.20;66.60;;;;;;5031334;28;20114;-76
2022/05/29 03:38:20;;;;;;;2.65;1.55;;;12.20;66.80;;;;;;5049479;28;20030;-76
2022/05/29 03:40:47;;;;;;;3.08;1.88;;;12.10;66.80;;;;;;5049052;28;20033;-76
2022/05/29 03:43:13;;;;;;;3.15;1.48;;;12.10;66.80;;;;;;5017269;28;20655;-76
2022/05/29 03:45:38;;;;;;;2.63;1.70;;;12.10;66.90;;;;;;5017083;28;20034;-76
2022/05/29 03:48:05;;;;;;;4.65;1.63;;;12.00;67.20;;;;;;5017057;28;20079;-76
2022/05/29 03:50:33;;;;;;;2.25;1.73;;;12.00;66.90;;;;;;5032069;28;20040;-76
2022/05/29 03:53:05;;;;;;;3.35;1.40;;;12.00;66.80;;;;;;5048620;28;20071;-76
2022/05/29 03:55:31;;;;;;;4.82;2.00;;;12.00;66.80;;;;;;5016556;28;20046;-76
2022/05/29 03:57:57;;;;;;;2.67;1.50;;;11.90;66.80;;;;;;5016720;28;20034;-76
2022/05/29 04:00:24;;;;;;;3.70;1.75;;;11.90;66.90;;;;;;5016890;28;20160;-76
2022/05/29 04:02:50;;;;;;;3.42;1.70;;;11.80;67.10;;;;;;5016936;28;20472;-76
2022/05/29 04:05:20;;;;;;;2.75;1.77;;;11.80;67.30;;;;;;5016622;28;20041;-76
2022/05/29 04:13:17;;;;;;;2.78;1.90;;;11.80;66.90;;;;;;5016055;28;20155;-76
2022/05/29 04:15:45;;;;;;;3.38;1.52;;;11.80;67.00;;;;;;5017897;28;20034;-76
2022/05/29 04:18:16;;;;;;;3.05;1.60;;;11.80;67.00;;;;;;5036533;28;20026;-76
2022/05/29 04:20:42;;;;;;;6.53;1.67;;;11.80;66.90;;;;;;5048213;28;20463;-75
2022/05/29 04:23:08;;;;;;;1.45;1.30;;;11.80;66.80;;;;;;5036229;28;20093;-76
2022/05/29 04:25:34;;;;;;;2.53;1.58;;;11.80;66.40;;;;;;5036381;28;20018;-76
2022/05/29 04:28:01;;;;;;;2.78;1.42;;;11.80;66.60;;;;;;5035052;28;20022;-76
2022/05/29 04:30:27;;;;;;;2.78;1.13;;;11.80;66.70;;;;;;5016250;28;20050;-76
2022/05/29 04:32:59;;;;;;;2.85;1.92;;;11.80;66.70;;;;;;5023894;28;20116;-76
2022/05/29 04:35:29;;;;;;;3.28;1.63;;;11.80;66.60;;;;;;5035386;28;20021;-75
2022/05/29 04:37:55;;;;;;;2.30;1.40;;;11.80;66.90;;;;;;5033733;28;20029;-76
2022/05/29 04:40:22;;;;;;;3.38;1.73;;;11.80;67.00;;;;;;5035881;28;20549;-76
2022/05/29 04:42:48;;;;;;;3.47;1.48;;;11.70;66.70;;;;;;5036145;28;20556;-76
2022/05/29 04:45:14;;;;;;;4.70;1.60;;;11.80;66.80;;;;;;5034497;28;20071;-76
2022/05/29 04:47:39;;;;;;;2.85;1.40;;;11.80;66.70;;;;;;5026632;28;20030;-76
2022/05/29 04:50:07;;;;;;;1.98;1.55;;;11.80;66.60;;;;;;5016405;28;20018;-76
2022/05/29 04:52:34;;;;;;;2.00;1.45;;;11.80;66.90;;;;;;5015287;28;20089;-76
2022/05/29 04:55:00;;;;;;;1.98;1.40;;;11.80;66.80;;;;;;5030694;28;20025;-75
2022/05/29 04:57:26;;;;;;;5.00;1.88;;;11.80;66.90;;;;;;5015781;28;20033;-76
2022/05/29 04:59:52;;;;;;;2.45;1.35;;;11.90;66.30;;;;;;5014247;28;20022;-76
2022/05/29 05:02:18;;;;;;;5.13;1.55;;;11.80;66.60;;;;;;5014811;28;20036;-76
2022/05/29 05:04:44;;;;;;;7.95;1.77;;;11.90;66.70;;;;;;5033051;28;20089;-76
2022/05/29 05:07:09;;;;;;;4.22;1.50;;;11.80;66.50;;;;;;5034109;28;20029;-75
2022/05/29 05:09:35;;;;;;;5.43;1.88;;;11.90;66.50;;;;;;5033602;28;20462;-76
2022/05/29 05:12:01;;;;;;;1.80;1.50;;;11.90;66.20;;;;;;5032536;28;20236;-76
2022/05/29 05:14:29;;;;;;;3.78;1.35;;;12.00;66.00;;;;;;5033980;28;20064;-76
2022/05/29 05:16:56;;;;;;;1.83;1.63;;;12.00;66.00;;;;;;5035135;28;20069;-75
2022/05/29 05:19:23;;;;;;;2.72;1.70;;;12.00;66.10;;;;;;5026508;28;20022;-76
2022/05/29 05:21:49;;;;;;;2.60;2.08;;;12.00;66.10;;;;;;5032428;28;20045;-76
2022/05/29 05:24:15;;;;;;;3.45;2.15;;;12.00;65.70;;;;;;5015139;28;20113;-76
2022/05/29 05:26:41;;;;;;;2.13;1.40;;;12.00;65.50;;;;;;5030326;28;20436;-76
2022/05/29 05:29:07;;;;;;;2.17;1.42;;;12.10;64.90;;;;;;5029811;28;20029;-76
2022/05/29 05:31:33;;;;;;;4.72;1.85;;;12.10;64.70;;;;;;5047470;28;20033;-76
2022/05/29 05:34:00;;;;;;;2.55;1.40;;;12.20;64.70;;;;;;5049890;28;20049;-76
2022/05/29 05:36:26;;;;;;;2.97;1.40;;;12.20;64.40;;;;;;5033746;28;20021;-76
2022/05/29 05:38:53;;;;;;;3.60;1.35;;;12.20;64.40;;;;;;5029739;28;20034;-75
2022/05/29 05:41:20;;;;;;;4.05;1.55;;;12.20;64.50;;;;;;5015374;28;20054;-75
2022/05/29 05:43:46;;;;;;;1.60;1.23;;;12.20;64.10;;;;;;5046465;28;20036;-76
2022/05/29 05:46:14;;;;;;;5.60;1.40;;;12.30;64.10;;;;;;5058716;28;20025;-76
2022/05/29 05:48:40;;;;;;;2.13;1.35;;;12.30;63.60;;;;;;5033024;28;20037;-76
2022/05/29 05:51:07;;;;;;;3.97;1.20;;;12.30;63.60;;;;;;5034440;28;20029;-76
2022/05/29 05:53:34;;;;;;;1.40;1.08;;;12.30;63.30;;;;;;5036713;28;20031;-76
2022/05/29 05:56:12;;;;;;;3.13;1.33;;;12.30;62.90;;;;;;5013201;28;20046;-75
2022/05/29 05:58:40;;;;;;;1.67;1.33;;;12.30;62.60;;;;;;5014485;28;20034;-75
2022/05/29 06:01:12;;;;;;;2.80;1.20;;;12.40;62.10;;;;;;5014438;28;20030;-76
2022/05/29 06:03:38;;;;;;;5.10;1.42;;;12.40;62.50;;;;;;5029322;28;20026;-76
2022/05/29 06:06:04;;;;;;;4.07;1.48;;;12.40;62.10;;;;;;5014092;28;20029;-76
2022/05/29 06:08:31;;;;;;;3.55;1.23;;;12.40;61.90;;;;;;5022833;28;20041;-76
2022/05/29 06:10:57;;;;;;;1.30;1.00;;;12.50;62.00;;;;;;5034296;28;20030;-76
2022/05/29 06:13:23;;;;;;;1.95;1.17;;;12.50;62.10;;;;;;5032810;28;20025;-76
2022/05/29 06:15:49;;;;;;;2.25;0.98;;;12.50;61.80;;;;;;5034200;28;20079;-76
2022/05/29 06:18:16;;;;;;;3.03;1.48;;;12.60;61.80;;;;;;5032306;28;20087;-75
2022/05/29 06:20:42;;;;;;;1.60;1.20;;;12.50;61.40;;;;;;5033821;28;20602;-75
2022/05/29 06:23:08;;;;;;;1.23;0.82;;;12.60;61.50;;;;;;5032118;28;20048;-76
2022/05/29 06:25:34;;;;;;;2.10;0.95;;;12.70;61.10;;;;;;5032389;28;20424;-75
2022/05/29 06:28:01;;;;;;;1.95;1.35;;;12.70;61.40;;;;;;5028577;28;20128;-75
2022/05/29 06:30:28;;;;;;;3.78;0.90;;;12.70;60.50;;;;;;5013736;28;20029;-75
2022/05/29 06:32:55;;;;;;;2.75;1.08;;;12.80;60.20;;;;;;5022129;28;20418;-77
2022/05/29 06:35:21;;;;;;;1.50;1.00;;;12.80;60.20;;;;;;5033838;28;20029;-75
2022/05/29 06:37:47;;;;;;;3.75;1.00;;;12.90;60.20;;;;;;5033238;28;20029;-75
2022/05/29 06:40:15;;;;;;;1.20;0.90;;;12.90;59.70;;;;;;5031940;28;20033;-75
2022/05/29 06:42:42;;;;;;;3.55;1.10;;;12.90;59.00;;;;;;5021526;28;20061;-75
2022/05/29 06:45:09;;;;;;;5.07;1.02;;;12.90;59.40;;;;;;5028258;28;20029;-75
2022/05/29 06:47:38;;;;;;;2.72;1.40;;;13.00;58.90;;;;;;5028974;28;20029;-76
2022/05/29 06:50:05;;;;;;;1.83;1.00;;;13.10;59.40;;;;;;5013706;28;20664;-76
2022/05/29 06:52:31;;;;;;;1.20;0.98;;;13.20;58.60;;;;;;5013720;28;21264;-76
2022/05/29 06:54:58;;;;;;;2.47;1.15;;;13.20;57.80;;;;;;5030593;28;20030;-75
2022/05/29 06:57:37;;;;;;;1.85;1.05;;;13.10;57.80;;;;;;5030420;28;20032;-76
2022/05/29 07:08:05;;;;;;;5.22;1.20;;;13.50;56.90;;;;;;5030824;28;20487;-76
2022/05/29 07:10:33;;;;;;;1.20;0.73;;;13.60;57.10;;;;;;5019759;28;20052;-78
2022/05/29 07:13:00;;;;;;;2.42;0.70;;;13.70;57.00;;;;;;5054502;28;20029;-80
2022/05/29 07:15:26;;;;;;;1.40;0.80;;;13.70;55.80;;;;;;5028590;28;20026;-80
2022/05/29 07:17:52;;;;;;;2.15;1.10;;;13.90;55.20;;;;;;5025016;28;20036;-77
2022/05/29 07:20:17;;;;;;;5.57;1.05;;;14.20;55.30;;;;;;5030764;28;20022;-77
2022/05/29 07:22:43;;;;;;;1.27;0.90;;;14.60;54.10;;;;;;4995856;28;20108;-78
2022/05/29 07:25:11;;;;;;;3.63;1.00;;;15.40;52.90;;;;;;5031757;28;20033;-77
2022/05/29 07:27:38;;;;;;;1.60;0.68;;;16.10;49.20;;;;;;5026711;28;20113;-78
2022/05/29 07:30:05;;;;;;;1.33;0.50;;;18.30;45.50;;;;;;5052839;28;21350;-78
2022/05/29 07:32:31;;;;;;;2.45;0.73;;;20.00;40.80;;;;;;5029861;28;20037;-77
2022/05/29 07:34:58;;;;;;;1.35;0.50;;;21.50;37.20;;;;;;5029913;28;20052;-78
2022/05/29 07:37:24;;;;;;;2.95;0.60;;;24.40;32.50;;;;;;5030664;28;20037;-75
2022/05/29 07:39:52;;;;;;;2.00;0.77;;;27.00;29.00;;;;;;5028906;28;20037;-76
2022/05/29 07:45:05;;;;;;;1.80;0.40;;;30.00;23.10;;;;;;5032374;28;20029;-77
2022/05/29 07:47:37;;;;;;;1.33;0.32;;;31.40;22.70;;;;;;5027906;28;20034;-79
2022/05/29 07:50:04;;;;;;;1.73;0.40;;;32.30;21.20;;;;;;5029953;28;20074;-80
2022/05/29 07:52:30;;;;;;;2.97;0.68;;;32.80;21.00;;;;;;5020188;28;20037;-78
2022/05/29 07:54:56;;;;;;;1.90;0.55;;;33.70;19.60;;;;;;5043764;28;20125;-77
2022/05/29 07:57:21;;;;;;;3.45;0.65;;;33.40;19.10;;;;;;5020474;28;20034;-79
2022/05/29 07:59:47;;;;;;;1.50;0.40;;;34.00;17.50;;;;;;5012068;28;20025;-78
2022/05/29 08:02:13;;;;;;;3.10;0.68;;;34.00;17.40;;;;;;5013744;28;20041;-78
2022/05/29 08:04:40;;;;;;;2.22;0.50;;;34.10;18.00;;;;;;5026832;28;20764;-77
2022/05/29 08:07:06;;;;;;;2.40;0.60;;;34.80;17.40;;;;;;5028745;28;20093;-77
2022/05/29 08:09:32;;;;;;;1.35;0.28;;;35.50;18.20;;;;;;5026659;28;20704;-77
2022/05/29 08:11:58;;;;;;;1.98;0.47;;;35.30;16.40;;;;;;5033867;28;20036;-77
2022/05/29 08:14:23;;;;;;;2.10;0.50;;;35.10;17.90;;;;;;5031037;28;20025;-76
2022/05/29 08:16:49;;;;;;;2.00;0.68;;;35.50;17.40;;;;;;5034330;28;20108;-77
2022/05/29 08:19:15;;;;;;;1.83;0.40;;;36.10;16.80;;;;;;5033766;28;20057;-77
2022/05/29 08:21:43;;;;;;;1.38;0.40;;;36.80;16.20;;;;;;5034182;28;20046;-80
2022/05/29 08:32:22;;;;;;;2.42;1.33;;;37.00;16.20;;;;;;5033741;28;20040;-77
2022/05/29 08:34:47;;;;;;;2.17;0.40;;;36.90;15.20;;;;;;5032648;28;20026;-77
2022/05/29 08:37:13;;;;;;;2.88;0.70;;;36.60;15.60;;;;;;5021736;28;20063;-77
2022/05/29 08:39:39;;;;;;;0.57;0.20;;;36.40;15.40;;;;;;5058746;28;20030;-79
2022/05/29 08:42:05;;;;;;;1.60;0.57;;;36.30;15.70;;;;;;5033768;28;20075;-76
2022/05/29 08:44:43;;;;;;;1.02;0.40;;;36.20;15.80;;;;;;5053040;28;20045;-76
2022/05/29 08:47:10;;;;;;;1.75;0.40;;;36.00;16.40;;;;;;5029022;28;20041;-76
2022/05/29 08:49:43;;;;;;;1.02;0.40;;;35.90;16.50;;;;;;5031195;28;20025;-78
2022/05/29 08:52:50;;;;;;;1.15;0.35;;;36.00;17.10;;;;;;5015590;28;20041;-75
2022/05/29 08:55:25;;;;;;;0.43;0.28;;;36.40;15.90;;;;;;5013416;28;20435;-76
2022/05/29 08:58:20;;;;;;;0.60;0.30;;;36.30;15.90;;;;;;5034307;28;20750;-75
2022/05/29 09:01:00;;;;;;;2.17;0.63;;;35.60;16.20;;;;;;5033123;28;20034;-75
2022/05/29 09:03:38;;;;;;;1.08;0.28;;;35.00;14.60;;;;;;5031678;28;20420;-75
2022/05/29 09:06:13;;;;;;;1.15;0.32;;;35.30;17.00;;;;;;5032659;28;20107;-77
2022/05/29 09:08:39;;;;;;;0.65;0.35;;;35.40;16.40;;;;;;5034308;28;20072;-77
2022/05/29 09:11:18;;;;;;;1.58;0.40;;;35.50;16.40;;;;;;5031122;28;20061;-75
2022/05/29 09:14:04;;;;;;;0.93;0.40;;;35.90;16.20;;;;;;5033991;28;20083;-75
2022/05/29 09:16:40;;;;;;;1.58;0.55;;;36.30;16.40;;;;;;5032945;28;20239;-75
2022/05/29 09:19:26;;;;;;;1.42;0.50;;;35.80;15.60;;;;;;5050212;28;20525;-78
2022/05/29 09:22:10;;;;;;;1.20;0.30;;;35.30;16.00;;;;;;5034345;28;20026;-76
2022/05/29 09:25:10;;;;;;;1.63;0.38;;;35.20;16.60;;;;;;5022181;28;20448;-78
2022/05/29 09:27:38;;;;;;;2.88;0.35;;;34.50;17.30;;;;;;5034399;28;20044;-76
2022/05/29 09:30:05;;;;;;;;;;;34.30;17.50;;;;;;5035277;28;20105;-72
2022/05/29 09:32:35;;;;;;;2.55;0.65;;;34.80;17.90;;;;;;5033207;28;19971;-70
2022/05/29 09:35:24;;;;;;;1.60;0.50;;;34.40;18.70;;;;;;5034422;28;20021;-71
2022/05/29 09:38:06;;;;;;;1.77;0.52;;;34.90;17.40;;;;;;5033821;28;20038;-71
2022/05/29 09:40:38;;;;;;;1.90;0.60;;;34.80;18.00;;;;;;5033145;28;20095;-68
2022/05/29 09:43:14;;;;;;;2.80;0.73;;;34.80;17.60;;;;;;5014026;28;20038;-70
2022/05/29 09:45:39;;;;;;;1.77;0.40;;;34.20;18.50;;;;;;5026918;28;20060;-69
2022/05/29 09:51:12;;;;;;;2.72;0.80;;;30.90;21.30;;;;;;5024604;28;20048;-68
2022/05/29 09:53:56;;;;;;;1.95;0.73;;;30.60;21.10;;;;;;5035334;28;20041;-68
2022/05/29 09:56:33;;;;;;;1.17;0.52;;;29.40;22.50;;;;;;5022709;28;20034;-68
2022/05/29 09:59:18;;;;;;;2.47;0.70;;;27.50;25.90;;;;;;5024730;28;20048;-68
2022/05/29 10:01:47;;;;;;;2.58;0.82;;;27.30;26.50;;;;;;5030318;28;20582;-68
2022/05/29 10:04:20;;;;;;;2.00;0.73;;;27.50;26.50;;;;;;5027776;28;20555;-68
2022/05/29 10:06:56;;;;;;;2.60;0.90;;;27.10;25.80;;;;;;5028000;28;20034;-68
2022/05/29 10:09:25;;;;;;;1.63;0.70;;;27.90;24.80;;;;;;5027628;28;20017;-68
2022/05/29 10:11:59;;;;;;;2.27;0.50;;;28.70;24.70;;;;;;5026440;28;20034;-75
2022/05/29 10:14:51;;;;;;;3.33;0.40;;;29.30;23.90;;;;;;5031720;28;20260;-75
2022/05/29 10:17:34;;;;;;;1.35;0.70;;;29.10;23.50;;;;;;5032932;28;20603;-77
2022/05/29 10:20:00;;;;;;;0.93;0.35;;;29.50;22.50;;;;;;5056395;28;20030;-76
2022/05/29 10:22:37;;;;;;;2.17;0.50;;;30.60;22.00;;;;;;5029551;28;20029;-77
2022/05/29 10:25:15;;;;;;;1.10;0.40;;;31.10;22.50;;;;;;5033304;28;20076;-75
2022/05/29 10:27:41;;;;;;;1.70;0.40;;;31.50;21.30;;;;;;5032909;28;20658;-76
2022/05/29 10:30:11;;;;;;;2.95;0.60;;;31.30;21.90;;;;;;5028828;28;20105;-76
2022/05/29 10:32:40;;;;;;;1.98;0.55;;;31.30;22.70;;;;;;5030540;28;20089;-76
2022/05/29 10:35:27;;;;;;;1.58;0.40;;;30.30;23.10;;;;;;5024240;28;20053;-75
2022/05/29 10:37:55;;;;;;;4.07;0.80;;;30.30;24.00;;;;;;5027335;28;20105;-77
2022/05/29 10:40:20;;;;;;;3.70;0.63;;;29.10;23.20;;;;;;5033271;28;20029;-76
2022/05/29 10:42:52;;;;;;;1.30;0.60;;;28.80;24.20;;;;;;5030210;28;20032;-76
2022/05/29 10:45:21;;;;;;;4.57;0.90;;;28.30;24.30;;;;;;5030664;28;20013;-74
2022/05/29 10:47:58;;;;;;;1.35;0.43;;;27.70;25.20;;;;;;5031693;28;20029;-74
2022/05/29 10:50:32;;;;;;;1.42;0.50;;;27.00;25.60;;;;;;5054890;28;20117;-75
2022/05/29 10:53:16;;;;;;;0.93;0.40;;;26.70;26.20;;;;;;5029026;28;20041;-75
2022/05/29 10:56:27;;;;;;;1.08;0.40;;;26.60;25.60;;;;;;5029335;28;20050;-74
2022/05/29 10:59:14;;;;;;;9.82;1.90;;;25.80;26.80;;;;;;5016888;28;20403;-76
2022/05/29 11:05:18;;;;;;;3.22;0.60;;;25.80;27.10;;;;;;5015085;28;20546;-75
2022/05/29 11:07:53;;;;;;;;;;;26.00;28.00;;;;;;5014419;28;20488;-75
2022/05/29 11:10:32;;;;;;;0.90;0.55;;;26.20;27.90;;;;;;5013640;28;19905;-75
2022/05/29 11:13:37;;;;;;;1.95;0.60;;;26.00;26.50;;;;;;5013553;28;20440;-76
2022/05/29 11:16:30;;;;;;;2.33;0.40;;;25.60;27.90;;;;;;5014747;28;20026;-77
2022/05/29 11:19:34;;;;;;;0.80;0.40;;;24.90;27.90;;;;;;5014021;28;20404;-76
2022/05/29 11:22:16;;;;;;;1.13;0.60;;;24.50;28.20;;;;;;5014706;28;20084;-76
2022/05/29 11:25:06;;;;;;;1.00;0.43;;;24.10;29.10;;;;;;5013575;28;20076;-74
2022/05/29 11:28:08;;;;;;;1.30;0.70;;;24.00;29.10;;;;;;5013273;28;20152;-74
2022/05/29 11:31:04;;;;;;;1.77;0.52;;;24.10;29.90;;;;;;5013067;28;20038;-74
2022/05/29 11:33:48;;;;;;;1.30;0.40;;;24.30;29.70;;;;;;5024267;28;20029;-75
2022/05/29 11:36:16;;;;;;;1.15;0.40;;;24.50;28.60;;;;;;5028573;28;20022;-86
2022/05/29 11:38:52;;;;;;;3.08;0.35;;;24.60;27.90;;;;;;5022012;28;20124;-81
2022/05/29 11:41:26;;;;;;;2.38;0.50;;;24.50;28.50;;;;;;5032218;28;20037;-78
2022/05/29 11:43:56;;;;;;;1.20;0.47;;;24.40;28.90;;;;;;5032466;28;20029;-76
2022/05/29 11:52:23;;;;;;;1.30;0.70;;;23.80;29.80;;;;;;5028853;28;20051;-75
2022/05/29 11:55:04;;;;;;;2.05;0.60;;;24.00;29.50;;;;;;5028525;28;20029;-75
2022/05/29 11:57:41;;;;;;;0.82;0.45;;;23.80;30.00;;;;;;5031272;28;20029;-75
2022/05/29 12:00:26;;;;;;;0.93;0.40;;;24.00;28.80;;;;;;5030735;28;20135;-75
2022/05/29 12:02:55;;;;;;;2.25;0.52;;;24.20;29.00;;;;;;5027117;28;20040;-75
2022/05/29 12:05:53;;;;;;;1.20;0.63;;;24.20;28.80;;;;;;5052420;28;20532;-75
2022/05/29 12:08:53;;;;;;;1.30;0.50;;;24.10;28.80;;;;;;5022073;28;20393;-74
2022/05/29 12:11:25;;;;;;;2.92;0.43;;;23.90;28.70;;;;;;5029099;28;20060;-74
2022/05/29 12:14:08;;;;;;;1.95;0.80;;;23.80;28.80;;;;;;5026972;28;20104;-74
2022/05/29 12:16:37;;;;;;;2.95;0.60;;;23.60;29.40;;;;;;5030588;28;20037;-76
2022/05/29 12:19:10;;;;;;;0.68;0.40;;;23.50;30.90;;;;;;5032705;28;20030;-75
2022/05/29 12:21:50;;;;;;;2.17;0.60;;;23.40;28.80;;;;;;5031670;28;20030;-75
2022/05/29 12:24:24;;;;;;;1.98;0.50;;;23.50;29.20;;;;;;5014874;28;20045;-74
2022/05/29 12:27:05;;;;;;;4.28;0.70;;;23.30;29.60;;;;;;5031265;28;20025;-77
2022/05/29 12:29:49;;;;;;;3.60;0.70;;;23.50;29.20;;;;;;5034666;28;20728;-76
2022/05/29 12:32:21;;;;;;;2.72;0.70;;;23.70;29.80;;;;;;5031918;28;20033;-75
2022/05/29 12:35:00;;;;;;;2.00;0.65;;;23.80;29.20;;;;;;5045146;22;20054;-75
2022/05/29 12:37:57;;;;;;;3.55;0.55;;;24.00;29.50;;;;;;5004867;28;20084;-75
2022/05/29 12:40:54;;;;;;;2.80;0.75;;;23.60;29.70;;;;;;5010291;23;20065;-75
2022/05/29 12:43:32;;;;;;;1.05;0.60;;;23.50;30.10;;;;;;5027632;28;20026;-79
2022/05/29 12:46:10;;;;;;;1.77;0.65;;;23.40;29.50;;;;;;5022405;28;20029;-76
2022/05/29 12:48:57;;;;;;;1.98;0.52;;;23.70;30.70;;;;;;5004365;28;20022;-77
2022/05/29 12:51:52;;;;;;;1.20;0.60;;;23.50;29.30;;;;;;5024536;28;20112;-76
2022/05/29 12:54:34;;;;;;;2.20;0.68;;;23.50;29.60;;;;;;4961123;28;20031;-76
2022/05/29 12:57:21;;;;;;;1.67;0.45;;;23.20;29.80;;;;;;5003880;28;20018;-76
2022/05/29 13:00:12;;;;;;;3.08;0.52;;;22.50;29.80;;;;;;5013182;28;20025;-76
2022/05/29 13:03:08;;;;;;;3.22;0.50;;;22.50;30.50;;;;;;5010212;28;20075;-76
2022/05/29 13:06:04;;;;;;;1.67;0.50;;;22.80;30.70;;;;;;5027122;28;20827;-79
2022/05/29 13:08:45;;;;;;;1.20;0.40;;;23.00;30.00;;;;;;5015745;28;20076;-76
2022/05/29 13:11:17;;;;;;;2.25;0.52;;;23.10;29.90;;;;;;5011683;28;20664;-75
2022/05/29 13:13:46;;;;;;;1.75;0.52;;;23.30;29.70;;;;;;4991918;28;20018;-75
2022/05/29 13:16:40;;;;;;;2.05;0.45;;;23.20;29.40;;;;;;5028415;28;20021;-75
2022/05/29 13:22:08;;;;;;;2.60;0.70;;;23.10;29.60;;;;;;5008914;28;20034;-76
2022/05/29 13:24:40;;;;;;;2.38;0.43;;;22.90;28.70;;;;;;5015019;28;20080;-76
2022/05/29 13:27:09;;;;;;;1.35;0.40;;;23.10;30.10;;;;;;5014613;28;20026;-76
2022/05/29 13:29:48;;;;;;;0.65;0.30;;;23.00;29.20;;;;;;5012030;28;20038;-75
2022/05/29 13:32:14;;;;;;;2.33;0.70;;;23.10;29.40;;;;;;5010668;28;20076;-76
2022/05/29 13:34:41;;;;;;;2.65;0.50;;;23.00;29.60;;;;;;5004579;28;20591;-74
2022/05/29 13:37:23;;;;;;;5.57;0.60;;;23.00;29.70;;;;;;5014064;28;20028;-75
2022/05/29 13:40:06;;;;;;;1.73;0.52;;;23.30;29.70;;;;;;5009309;28;20022;-74
2022/05/29 13:42:45;;;;;;;1.98;0.45;;;23.10;30.40;;;;;;5012220;28;20864;-74
2022/05/29 13:45:23;;;;;;;1.63;0.60;;;23.20;29.50;;;;;;5008697;28;20026;-76
2022/05/29 13:48:11;;;;;;;3.75;0.63;;;23.30;28.90;;;;;;5011018;28;20033;-77
2022/05/29 13:50:58;;;;;;;1.17;0.50;;;23.20;29.80;;;;;;5013151;28;20397;-76
2022/05/29 13:53:28;;;;;;;4.75;0.90;;;23.00;29.40;;;;;;5000269;28;20110;-76
2022/05/29 13:55:59;;;;;;;1.90;0.82;;;23.10;29.50;;;;;;4994837;28;20117;-76
2022/05/29 14:04:33;;;;;;;3.25;0.50;;;23.50;29.50;;;;;;4990534;28;20052;-77
2022/05/29 14:07:08;;;;;;;2.10;0.40;;;23.40;29.10;;;;;;5014492;28;20014;-78
2022/05/29 14:09:34;;;;;;;1.38;0.50;;;23.30;29.00;;;;;;5009761;28;20025;-80